Portada
METAR-TAF:

METAR-TAF

Aeroports :

San Juan, Puerto Rico, Estats Units d'Amèrica

latitud: 18-27-24N, longitud: 066-05-54W, altitud: 3 m

Observació

L'informe es va fer fa 1 hora i 2 minuts, a les 13:45 UTC
Vent 7 kt del Est
Temperatura 29°C
Humitat 74%
Pressió 1012 hPa
Visibilitat: 16.1 km
Núvols disperses a una alçada de 4500 ft

METAR: TJIG 181345Z 09007KT 10SM SCT045 29/24 A2987

Hora: 10:47 (14:47 UTC)


TAF: manca

Observacions i pronòstics meteorològics de més de 4000 aeroports (METAR i TAF).

Les estacions disponibles són els punts grocs i vermells al mapa.

Posi el ratolí al punt desitjat per veure el nom de l'estació.

Feu clic per veure les observacions i els pronòstics meteorològics.

Per canviar el mapa: feu clic els botons verds amb una creu de color negre per apropar; al botó verd amb un guió per allunyar la imatge; o en les fletxes verdes per a mapes adjacents.


METAR-TAF: